Weather at Napier Ranch Airport

Public forecast

Using degrees Fahrenheit for public forecast. Weather courtesy of forecast.io.

Closest aviation weather report (METAR) to Napier Ranch Airport

Closest report is Roseburg Regional Airport, 6.0 nm (11.1 km) E. Retrieved 2021/09/25 10:53 UTC (13 minutes ago):

KRBG 251053Z AUTO 00000KT 10SM CLR 14/12 A2990 RMK AO2 SLP123 T01390117

Closest aviation forecast (TAF) to Napier Ranch Airport

Closest forecast is Roseburg Regional Airport, 6.0 nm (11.1 km) E. Retrieved 2021/09/25 06:22 UTC (5 hours ago):

TAF KRBG 250520Z 2506/2606 VRB03KT P6SM SKC FM252300 33006KT P6SM SKC FM260300 VRB03KT P6SM SKC